Time;durP1;ratioP1;P1;durP2;ratioP2;P2;SDS_P1;SDS_P2;PMS_P1;PMS_P2;Temp;Humidity;BMP_temperature;BMP_pressure;BME280_temperature;BME280_humidity;BME280_pressure;Samples;Min_cycle;Max_cycle;Signal;HPM_P1;HPM_P2
2022/10/01 00:00:55;;;;;;;7.43;6.13;;;11.70;97.00;;;;;;4999649;28;20217;-89
2022/10/01 00:03:22;;;;;;;6.80;6.10;;;11.70;96.80;;;;;;5011135;28;20179;-89
2022/10/01 00:05:59;;;;;;;7.10;6.20;;;11.70;96.00;;;;;;5020512;28;20208;-89
2022/10/01 00:08:26;;;;;;;6.93;6.33;;;11.70;96.50;;;;;;5008690;28;20201;-89
2022/10/01 00:10:52;;;;;;;7.20;6.50;;;11.50;97.10;;;;;;5019532;28;20205;-91
2022/10/01 00:13:18;;;;;;;7.40;6.77;;;11.30;98.00;;;;;;5018253;28;20208;-90
2022/10/01 00:15:43;;;;;;;6.60;6.10;;;11.30;98.30;;;;;;5003055;28;20975;-90
2022/10/01 00:18:09;;;;;;;7.40;6.30;;;11.30;98.60;;;;;;4995821;28;20189;-88
2022/10/01 00:20:39;;;;;;;6.80;6.20;;;11.20;99.30;;;;;;4982799;28;20241;-89
2022/10/01 00:23:04;;;;;;;6.83;6.20;;;11.20;99.80;;;;;;4991832;28;20666;-88
2022/10/01 00:25:30;;;;;;;6.90;6.30;;;11.10;99.20;;;;;;5002315;28;20211;-89
2022/10/01 00:27:56;;;;;;;7.17;6.00;;;11.10;99.70;;;;;;4992799;28;20721;-89
2022/10/01 00:30:21;;;;;;;6.13;5.63;;;11.00;99.90;;;;;;5005245;28;20214;-89
2022/10/01 00:32:47;;;;;;;6.93;6.23;;;11.10;99.50;;;;;;4991088;28;20212;-89
2022/10/01 00:35:13;;;;;;;6.50;6.00;;;11.10;99.40;;;;;;4980228;28;20236;-88
2022/10/01 00:37:41;;;;;;;6.53;5.80;;;11.10;99.80;;;;;;4995719;28;20217;-89
2022/10/01 00:40:07;;;;;;;6.13;5.63;;;11.10;99.40;;;;;;4997235;28;20213;-88
2022/10/01 00:42:33;;;;;;;5.87;5.37;;;11.20;99.10;;;;;;4996254;28;20250;-88
2022/10/01 00:45:02;;;;;;;5.93;5.43;;;11.20;99.20;;;;;;5004872;28;20197;-89
2022/10/01 00:47:43;;;;;;;6.30;5.70;;;11.30;98.20;;;;;;4987631;28;20208;-88
2022/10/01 00:50:21;;;;;;;6.17;5.30;;;11.40;98.30;;;;;;4993312;28;20401;-89
2022/10/01 00:52:51;;;;;;;6.30;5.87;;;11.30;97.90;;;;;;4992021;28;20205;-88
2022/10/01 00:55:28;;;;;;;6.00;5.50;;;11.30;98.70;;;;;;4996768;28;20194;-88
2022/10/01 00:57:54;;;;;;;5.70;5.23;;;11.30;98.70;;;;;;5002395;28;20669;-89
2022/10/01 01:00:21;;;;;;;5.97;5.47;;;11.30;98.60;;;;;;5001476;28;20241;-88
2022/10/01 01:02:46;;;;;;;6.20;5.60;;;11.20;98.50;;;;;;4997673;28;20203;-90
2022/10/01 01:05:12;;;;;;;5.93;5.30;;;11.20;98.30;;;;;;4989725;28;20193;-89
2022/10/01 01:07:46;;;;;;;5.87;5.30;;;11.10;99.20;;;;;;4990444;28;20203;-88
2022/10/01 01:10:15;;;;;;;6.17;5.23;;;11.10;99.40;;;;;;4995656;28;20213;-88
2022/10/01 01:13:22;;;;;;;5.50;5.00;;;11.00;99.80;;;;;;4997799;28;20228;-89
2022/10/01 01:16:08;;;;;;;5.53;5.03;;;11.00;99.70;;;;;;4989396;28;20302;-90
2022/10/01 01:18:46;;;;;;;5.67;5.17;;;10.90;99.90;;;;;;4993886;28;20201;-89
2022/10/01 01:21:12;;;;;;;5.00;4.60;;;10.90;99.90;;;;;;4994274;28;20745;-89
2022/10/01 01:24:05;;;;;;;6.37;5.20;;;11.00;99.90;;;;;;4974452;28;20268;-89
2022/10/01 01:26:45;;;;;;;5.40;4.90;;;10.90;99.90;;;;;;4985584;28;20195;-89
2022/10/01 01:29:22;;;;;;;5.40;4.90;;;10.90;99.90;;;;;;4985923;28;20189;-89
2022/10/01 01:31:48;;;;;;;5.30;4.90;;;10.90;99.90;;;;;;4994576;28;20208;-90
2022/10/01 01:34:20;;;;;;;5.87;5.27;;;11.00;99.90;;;;;;4998987;28;20199;-88
2022/10/01 01:36:53;;;;;;;6.07;4.97;;;10.90;99.90;;;;;;5001256;28;20200;-88
2022/10/01 01:39:20;;;;;;;5.80;5.00;;;10.90;99.90;;;;;;4995438;28;20186;-88
2022/10/01 01:41:50;;;;;;;6.20;5.07;;;10.90;99.90;;;;;;4974688;28;20193;-88
2022/10/01 01:44:21;;;;;;;5.23;4.73;;;10.90;99.90;;;;;;4994471;28;20200;-89
2022/10/01 01:46:48;;;;;;;6.03;5.40;;;10.90;99.90;;;;;;4986017;28;20674;-88
2022/10/01 01:49:19;;;;;;;5.07;4.67;;;11.00;99.90;;;;;;4992797;28;20194;-88
2022/10/01 01:52:04;;;;;;;5.70;4.43;;;11.10;99.90;;;;;;4997243;28;20714;-89
2022/10/01 01:54:33;;;;;;;4.30;3.90;;;11.10;99.90;;;;;;5001808;28;20311;-89
2022/10/01 01:57:01;;;;;;;4.63;4.23;;;11.20;99.90;;;;;;4994368;28;20217;-89
2022/10/01 01:59:27;;;;;;;4.77;4.43;;;11.30;99.60;;;;;;4994911;28;20200;-89
2022/10/01 02:01:52;;;;;;;5.00;4.00;;;11.20;99.60;;;;;;4991340;28;20220;-88
2022/10/01 02:04:34;;;;;;;4.50;4.10;;;11.30;99.80;;;;;;4999076;28;20192;-90
2022/10/01 02:07:17;;;;;;;4.40;4.10;;;11.40;99.40;;;;;;4999824;28;20718;-89
2022/10/01 02:09:46;;;;;;;4.17;3.77;;;11.40;99.30;;;;;;4999160;28;20217;-89
2022/10/01 02:12:34;;;;;;;3.77;3.47;;;11.30;99.70;;;;;;4996183;28;20201;-89
2022/10/01 02:15:03;;;;;;;3.60;3.30;;;11.30;99.90;;;;;;4992827;28;20817;-89
2022/10/01 02:17:45;;;;;;;3.87;3.30;;;11.20;99.90;;;;;;4998772;28;20214;-89
2022/10/01 02:20:23;;;;;;;3.83;3.53;;;11.10;99.90;;;;;;4993987;28;20229;-89
2022/10/01 02:23:02;;;;;;;5.00;3.30;;;11.10;99.90;;;;;;4998425;28;20549;-89
2022/10/01 02:25:33;;;;;;;4.50;3.30;;;11.10;99.90;;;;;;4991685;28;20185;-89
2022/10/01 02:28:10;;;;;;;3.53;3.23;;;11.10;99.90;;;;;;5002039;28;20208;-88
2022/10/01 02:30:37;;;;;;;3.20;3.00;;;11.10;99.90;;;;;;5002304;28;20220;-88
2022/10/01 02:33:05;;;;;;;3.47;3.13;;;11.10;99.90;;;;;;4990285;28;20209;-88
2022/10/01 02:35:34;;;;;;;3.60;3.27;;;11.10;99.90;;;;;;4982508;28;20187;-88
2022/10/01 02:38:03;;;;;;;3.30;3.00;;;11.10;99.90;;;;;;4989571;28;20193;-88
2022/10/01 02:40:31;;;;;;;3.70;3.20;;;11.10;99.90;;;;;;4998450;28;20630;-88
2022/10/01 02:43:11;;;;;;;3.10;2.90;;;11.10;99.30;;;;;;4999188;28;20202;-89
2022/10/01 02:45:39;;;;;;;3.50;3.20;;;11.10;99.90;;;;;;5003032;28;20678;-89
2022/10/01 02:48:09;;;;;;;3.27;3.07;;;11.20;98.60;;;;;;5005542;28;20194;-88
2022/10/01 02:51:03;;;;;;;3.43;3.13;;;11.20;99.00;;;;;;4992537;28;20715;-89
2022/10/01 02:53:41;;;;;;;3.27;3.07;;;11.20;98.70;;;;;;4980351;28;20200;-88
2022/10/01 02:56:09;;;;;;;3.27;3.00;;;11.30;99.60;;;;;;4991867;28;20212;-90
2022/10/01 02:58:35;;;;;;;5.10;3.13;;;11.20;98.00;;;;;;5000526;28;20274;-89
2022/10/01 03:01:01;;;;;;;3.10;2.90;;;11.30;98.60;;;;;;5000869;28;20226;-91
2022/10/01 03:03:26;;;;;;;3.03;2.70;;;11.30;98.60;;;;;;5000449;28;20270;-90
2022/10/01 03:05:52;;;;;;;3.10;2.90;;;11.30;98.40;;;;;;5006082;28;20297;-89
2022/10/01 03:08:18;;;;;;;4.03;3.23;;;11.20;99.00;;;;;;5001840;28;20199;-88
2022/10/01 03:10:44;;;;;;;3.33;3.10;;;11.20;99.40;;;;;;4996828;28;20211;-89
2022/10/01 03:13:09;;;;;;;3.00;2.80;;;11.20;98.70;;;;;;4997545;28;20241;-89
2022/10/01 03:15:35;;;;;;;3.27;3.07;;;11.20;99.30;;;;;;4998800;28;20541;-89
2022/10/01 03:18:01;;;;;;;3.43;2.97;;;11.30;98.30;;;;;;4989972;28;20192;-91
2022/10/01 03:20:26;;;;;;;3.20;3.00;;;11.30;98.40;;;;;;4995308;28;20219;-88
2022/10/01 03:22:52;;;;;;;3.40;3.10;;;11.30;98.40;;;;;;5007920;28;20200;-89
2022/10/01 03:25:18;;;;;;;3.43;3.13;;;11.30;97.40;;;;;;4995535;28;20251;-90
2022/10/01 03:27:45;;;;;;;3.33;3.03;;;11.30;97.50;;;;;;4991818;28;20254;-89
2022/10/01 03:30:11;;;;;;;3.10;2.90;;;11.20;98.40;;;;;;4996875;28;20234;-88
2022/10/01 03:32:37;;;;;;;3.27;3.07;;;11.20;98.90;;;;;;5004562;28;20239;-90
2022/10/01 03:35:03;;;;;;;3.67;3.03;;;11.20;98.90;;;;;;5014756;28;20306;-92
2022/10/01 03:37:28;;;;;;;3.50;3.20;;;11.20;98.00;;;;;;5011842;28;20622;-90
2022/10/01 03:39:54;;;;;;;3.50;3.17;;;11.20;98.40;;;;;;5004294;28;20252;-89
2022/10/01 03:42:20;;;;;;;3.40;3.20;;;11.20;98.20;;;;;;5009805;28;20225;-90
2022/10/01 03:44:46;;;;;;;2.73;2.53;;;11.30;97.90;;;;;;4981401;28;20190;-89
2022/10/01 03:47:12;;;;;;;3.33;3.00;;;11.30;97.40;;;;;;4991517;28;20196;-89
2022/10/01 03:49:37;;;;;;;3.70;3.23;;;11.30;98.20;;;;;;4996700;28;20307;-89
2022/10/01 03:52:05;;;;;;;3.60;3.30;;;11.20;98.40;;;;;;5001367;28;20196;-89
2022/10/01 03:54:31;;;;;;;3.60;2.97;;;11.30;98.10;;;;;;4996132;28;20195;-89
2022/10/01 03:56:57;;;;;;;3.23;2.80;;;11.40;97.40;;;;;;5003164;28;20219;-90
2022/10/01 03:59:23;;;;;;;3.00;2.70;;;11.30;97.00;;;;;;4998549;28;20191;-89
2022/10/01 04:01:49;;;;;;;3.07;2.87;;;11.40;96.70;;;;;;4990056;28;20198;-88
2022/10/01 04:04:15;;;;;;;3.03;2.83;;;11.40;96.80;;;;;;4993307;28;20196;-89
2022/10/01 04:06:40;;;;;;;3.07;2.80;;;11.40;97.20;;;;;;4994105;28;20683;-89
2022/10/01 04:09:08;;;;;;;2.67;2.47;;;11.30;97.90;;;;;;4999380;28;20203;-89
2022/10/01 04:11:35;;;;;;;2.63;2.50;;;11.30;97.70;;;;;;5000203;28;20194;-89
2022/10/01 04:14:00;;;;;;;2.83;2.60;;;11.40;97.20;;;;;;5004111;28;20288;-90
2022/10/01 04:16:26;;;;;;;3.77;2.90;;;11.30;97.80;;;;;;4985495;28;20301;-89
2022/10/01 04:18:52;;;;;;;3.57;2.60;;;11.40;96.80;;;;;;5003619;28;20206;-88
2022/10/01 04:21:18;;;;;;;2.57;2.33;;;11.50;96.50;;;;;;4989598;28;20208;-89
2022/10/01 04:23:44;;;;;;;3.07;2.80;;;11.50;96.40;;;;;;4995444;28;20196;-89
2022/10/01 04:26:09;;;;;;;3.30;2.60;;;11.50;96.00;;;;;;4994603;28;20227;-90
2022/10/01 04:28:35;;;;;;;2.73;2.53;;;11.60;96.00;;;;;;5001830;28;20202;-89
2022/10/01 04:33:45;;;;;;;3.00;2.80;;;11.50;96.40;;;;;;5003812;28;20193;-90
2022/10/01 04:36:11;;;;;;;2.97;2.70;;;11.60;95.40;;;;;;4998465;28;20305;-89
2022/10/01 04:38:37;;;;;;;2.67;2.47;;;11.60;95.10;;;;;;4990497;28;20195;-89
2022/10/01 04:41:02;;;;;;;2.80;2.50;;;11.60;96.20;;;;;;4994851;28;20219;-90
2022/10/01 04:43:28;;;;;;;3.57;2.87;;;11.60;96.10;;;;;;4997415;28;20193;-89
2022/10/01 04:45:54;;;;;;;3.03;2.40;;;11.60;97.40;;;;;;4995646;28;20301;-89
2022/10/01 04:48:20;;;;;;;3.20;2.90;;;11.50;96.80;;;;;;5002590;28;20200;-91
2022/10/01 04:50:46;;;;;;;2.67;2.47;;;11.60;98.30;;;;;;5005246;28;20220;-88
2022/10/01 04:53:11;;;;;;;2.87;2.67;;;11.50;98.20;;;;;;5007508;28;20199;-89
2022/10/01 04:55:37;;;;;;;2.63;2.43;;;11.50;99.00;;;;;;4991744;28;20201;-88
2022/10/01 04:58:03;;;;;;;3.40;2.97;;;11.40;99.90;;;;;;4995014;28;20649;-88
2022/10/01 05:00:28;;;;;;;3.20;2.70;;;11.40;99.90;;;;;;4994153;28;20226;-89
2022/10/01 05:02:54;;;;;;;2.87;2.53;;;11.30;99.90;;;;;;4999288;28;20558;-89
2022/10/01 05:05:23;;;;;;;2.47;2.27;;;11.30;99.90;;;;;;4999948;28;20251;-90
2022/10/01 05:07:49;;;;;;;3.50;2.70;;;11.30;99.90;;;;;;4998377;28;20189;-89
2022/10/01 05:10:18;;;;;;;2.80;2.60;;;11.20;99.90;;;;;;4997758;28;20206;-89
2022/10/01 05:12:45;;;;;;;2.90;2.70;;;11.20;99.90;;;;;;4989560;28;20191;-90
2022/10/01 05:15:11;;;;;;;2.93;2.70;;;11.10;99.90;;;;;;4989966;28;20281;-89
2022/10/01 05:17:37;;;;;;;2.57;2.37;;;11.10;99.90;;;;;;4994456;28;20883;-89
2022/10/01 05:20:05;;;;;;;3.00;2.70;;;11.10;99.90;;;;;;4994780;28;20218;-89
2022/10/01 05:22:31;;;;;;;2.93;2.73;;;11.00;99.90;;;;;;4997036;28;20219;-88
2022/10/01 05:24:59;;;;;;;4.00;2.97;;;11.00;99.90;;;;;;5003068;28;20221;-90
2022/10/01 05:27:29;;;;;;;2.57;2.37;;;11.00;99.90;;;;;;5001594;28;20671;-88
2022/10/01 05:29:55;;;;;;;2.87;2.67;;;11.00;99.90;;;;;;4999817;28;20275;-88
2022/10/01 05:32:22;;;;;;;4.20;2.73;;;11.00;99.90;;;;;;4991828;28;20302;-88
2022/10/01 05:34:47;;;;;;;3.00;2.70;;;10.90;99.90;;;;;;4994858;28;20209;-88
2022/10/01 05:37:13;;;;;;;2.60;2.40;;;10.90;99.90;;;;;;4995472;28;20225;-89
2022/10/01 05:39:39;;;;;;;2.90;2.70;;;10.90;99.90;;;;;;4993901;28;20208;-90
2022/10/01 05:42:05;;;;;;;3.30;2.80;;;10.90;99.90;;;;;;4999926;28;20209;-89
2022/10/01 05:44:36;;;;;;;2.90;2.70;;;10.90;99.90;;;;;;5001737;28;20214;-88
2022/10/01 05:47:04;;;;;;;2.83;2.63;;;11.00;99.90;;;;;;5004740;28;20200;-89
2022/10/01 05:49:30;;;;;;;3.10;2.77;;;11.00;99.90;;;;;;4991973;28;20222;-89
2022/10/01 05:51:56;;;;;;;3.13;2.83;;;11.00;99.90;;;;;;4987617;28;20206;-90
2022/10/01 05:54:23;;;;;;;3.00;2.60;;;11.00;99.90;;;;;;4960065;28;20207;-89
2022/10/01 05:56:49;;;;;;;2.90;2.70;;;11.00;99.90;;;;;;4995370;28;20219;-89
2022/10/01 05:59:15;;;;;;;2.93;2.73;;;11.00;99.90;;;;;;5001663;28;20259;-89
2022/10/01 06:01:41;;;;;;;2.53;2.30;;;11.00;99.90;;;;;;5001914;28;20196;-89
2022/10/01 06:04:09;;;;;;;3.33;2.80;;;11.00;99.90;;;;;;5006426;28;20198;-89
2022/10/01 06:06:35;;;;;;;3.07;2.77;;;11.00;99.90;;;;;;4994198;28;20199;-90
2022/10/01 06:09:00;;;;;;;4.43;2.90;;;11.00;99.90;;;;;;4991315;28;20195;-87
2022/10/01 06:11:26;;;;;;;2.67;2.47;;;11.00;99.90;;;;;;4996526;28;20216;-87
2022/10/01 06:13:52;;;;;;;3.50;2.77;;;11.00;99.90;;;;;;4998270;28;20202;-87
2022/10/01 06:16:19;;;;;;;2.93;2.73;;;11.00;99.90;;;;;;4998449;28;20310;-87
2022/10/01 06:18:47;;;;;;;3.63;2.67;;;10.90;99.90;;;;;;5001576;28;20188;-86
2022/10/01 06:21:13;;;;;;;2.87;2.57;;;10.90;99.90;;;;;;5001340;28;20233;-85
2022/10/01 06:23:39;;;;;;;2.60;2.40;;;10.90;99.90;;;;;;5001981;28;20196;-86
2022/10/01 06:26:05;;;;;;;3.47;3.17;;;10.90;99.90;;;;;;4995357;28;20218;-86
2022/10/01 06:28:31;;;;;;;3.90;2.93;;;11.00;99.90;;;;;;4998393;28;20206;-90
2022/10/01 06:31:00;;;;;;;2.90;2.60;;;11.00;99.90;;;;;;5007593;28;20569;-90
2022/10/01 06:33:26;;;;;;;3.30;3.00;;;11.00;99.90;;;;;;5004662;28;20245;-89
2022/10/01 06:35:52;;;;;;;3.63;3.20;;;10.90;99.90;;;;;;5011540;28;20202;-91
2022/10/01 06:38:19;;;;;;;4.70;2.90;;;10.90;99.90;;;;;;5004745;28;20195;-89
2022/10/01 06:40:53;;;;;;;3.20;2.93;;;11.00;99.90;;;;;;5003564;28;20233;-89
2022/10/01 06:43:20;;;;;;;2.97;2.47;;;10.90;99.90;;;;;;4995189;28;20236;-90
2022/10/01 06:45:46;;;;;;;4.03;2.80;;;10.90;99.90;;;;;;4998763;28;20894;-90
2022/10/01 06:48:14;;;;;;;3.10;2.90;;;10.90;99.90;;;;;;4997141;28;20270;-89
2022/10/01 06:50:41;;;;;;;3.00;2.80;;;10.90;99.90;;;;;;4998196;28;20225;-89
2022/10/01 06:53:07;;;;;;;3.60;3.30;;;11.00;99.90;;;;;;4998786;28;20240;-90
2022/10/01 06:55:35;;;;;;;3.10;2.80;;;10.90;99.90;;;;;;5007909;28;20202;-89
2022/10/01 06:58:02;;;;;;;5.70;3.00;;;10.90;99.90;;;;;;5010926;28;20186;-90
2022/10/01 07:00:31;;;;;;;3.07;2.83;;;10.90;99.90;;;;;;4997084;28;20210;-90
2022/10/01 07:02:57;;;;;;;3.53;3.00;;;10.90;99.90;;;;;;5008746;28;20722;-90
2022/10/01 07:05:24;;;;;;;2.87;2.50;;;10.90;99.90;;;;;;5011122;28;20213;-89
2022/10/01 07:07:49;;;;;;;2.93;2.60;;;10.90;99.90;;;;;;4993602;28;20187;-89
2022/10/01 07:10:19;;;;;;;3.30;2.93;;;10.90;99.90;;;;;;4998082;28;20216;-89
2022/10/01 07:12:49;;;;;;;4.67;3.10;;;10.90;99.90;;;;;;4998660;28;20667;-89
2022/10/01 07:15:17;;;;;;;2.90;2.70;;;10.90;99.90;;;;;;4996710;28;20213;-88
2022/10/01 07:17:50;;;;;;;2.73;2.50;;;10.90;99.90;;;;;;4992198;28;20657;-88
2022/10/01 07:20:18;;;;;;;3.80;3.00;;;11.00;99.90;;;;;;4992917;28;20202;-89
2022/10/01 07:22:45;;;;;;;2.77;2.57;;;10.90;99.90;;;;;;4998604;28;20663;-90
2022/10/01 07:25:10;;;;;;;2.77;2.50;;;10.90;99.90;;;;;;4993840;28;20262;-89
2022/10/01 07:27:36;;;;;;;3.30;2.63;;;11.00;99.90;;;;;;4998942;28;20214;-90
2022/10/01 07:30:04;;;;;;;2.87;2.67;;;11.00;99.90;;;;;;5003372;28;20223;-90
2022/10/01 07:32:30;;;;;;;2.80;2.60;;;11.00;99.90;;;;;;5002829;28;20211;-90
2022/10/01 07:34:56;;;;;;;3.50;2.90;;;11.00;99.90;;;;;;4993033;28;20815;-90
2022/10/01 07:37:22;;;;;;;2.73;2.50;;;11.10;99.90;;;;;;4994232;28;20207;-91
2022/10/01 07:39:48;;;;;;;4.17;2.50;;;11.10;99.90;;;;;;4997595;28;20270;-89
2022/10/01 07:42:14;;;;;;;2.77;2.57;;;11.10;99.90;;;;;;4999750;28;20220;-90
2022/10/01 07:44:39;;;;;;;3.17;2.87;;;11.00;99.90;;;;;;5002926;28;20197;-88
2022/10/01 07:47:05;;;;;;;2.80;2.60;;;11.10;99.90;;;;;;5003880;28;20268;-89
2022/10/01 07:49:31;;;;;;;2.83;2.63;;;11.10;99.90;;;;;;5003619;28;20336;-88
2022/10/01 07:51:57;;;;;;;2.90;2.70;;;11.00;99.90;;;;;;5009447;28;20281;-90
2022/10/01 07:54:24;;;;;;;2.70;2.50;;;11.00;99.90;;;;;;4992312;28;20198;-90
2022/10/01 07:56:54;;;;;;;2.90;2.70;;;11.00;99.90;;;;;;4992582;28;20203;-89
2022/10/01 07:59:21;;;;;;;3.00;2.67;;;11.00;99.90;;;;;;4989878;28;20281;-90
2022/10/01 08:01:53;;;;;;;2.73;2.37;;;11.00;99.90;;;;;;4995688;28;20306;-90
2022/10/01 08:07:05;;;;;;;2.80;2.57;;;11.10;99.90;;;;;;4999503;28;20224;-90
2022/10/01 08:09:31;;;;;;;3.43;2.53;;;11.00;99.90;;;;;;5003109;28;20218;-92
2022/10/01 08:12:01;;;;;;;3.17;2.97;;;10.90;99.90;;;;;;4995563;28;20194;-91
2022/10/01 08:14:27;;;;;;;2.80;2.60;;;11.00;99.90;;;;;;4996399;28;20198;-90
2022/10/01 08:16:56;;;;;;;2.83;2.63;;;11.00;99.90;;;;;;5007617;28;20222;-89
2022/10/01 08:19:23;;;;;;;2.97;2.77;;;10.90;99.90;;;;;;4997471;28;20611;-90
2022/10/01 08:21:49;;;;;;;5.17;2.80;;;10.90;99.90;;;;;;4983798;28;20199;-91
2022/10/01 08:24:14;;;;;;;2.93;2.73;;;11.00;99.90;;;;;;4974436;28;20531;-90
2022/10/01 08:26:40;;;;;;;2.87;2.67;;;11.00;99.90;;;;;;5003265;28;20187;-90
2022/10/01 08:29:05;;;;;;;3.40;3.10;;;11.00;99.90;;;;;;4976113;28;20193;-90
2022/10/01 08:31:31;;;;;;;3.50;3.20;;;10.80;99.90;;;;;;4991031;28;20218;-90
2022/10/01 08:33:57;;;;;;;3.17;2.90;;;10.80;99.90;;;;;;4993374;28;20643;-90
2022/10/01 08:36:23;;;;;;;3.07;2.77;;;10.90;99.90;;;;;;4996702;28;20211;-90
2022/10/01 08:38:48;;;;;;;3.00;2.70;;;10.90;99.90;;;;;;4997139;28;20236;-90
2022/10/01 08:41:32;;;;;;;3.53;3.00;;;10.80;99.90;;;;;;4997613;28;20207;-89
2022/10/01 08:44:00;;;;;;;3.40;3.10;;;10.90;99.90;;;;;;5000594;28;20182;-89
2022/10/01 08:46:30;;;;;;;4.00;3.17;;;10.90;99.90;;;;;;4988714;28;20195;-90
2022/10/01 08:49:10;;;;;;;3.40;3.20;;;10.90;99.90;;;;;;4998461;28;20197;-90
2022/10/01 08:51:51;;;;;;;2.90;2.70;;;10.90;99.90;;;;;;4994860;28;20829;-90
2022/10/01 08:54:50;;;;;;;3.57;3.03;;;11.00;99.90;;;;;;5001031;28;20209;-90
2022/10/01 08:57:24;;;;;;;3.20;2.90;;;11.10;99.90;;;;;;5002773;28;20281;-89
2022/10/01 09:00:05;;;;;;;3.87;2.87;;;11.00;99.90;;;;;;5006488;28;20225;-89
2022/10/01 09:02:34;;;;;;;2.70;2.50;;;11.00;99.90;;;;;;5005256;28;20170;-89
2022/10/01 09:05:03;;;;;;;3.27;2.70;;;11.00;99.90;;;;;;4985830;28;20186;-89
2022/10/01 09:07:40;;;;;;;2.90;2.70;;;11.00;99.90;;;;;;4983188;28;20190;-89
2022/10/01 09:10:43;;;;;;;5.73;2.80;;;11.00;99.90;;;;;;4993545;28;20217;-90
2022/10/01 09:13:30;;;;;;;2.97;2.77;;;11.10;99.90;;;;;;4996553;28;20186;-90
2022/10/01 09:16:08;;;;;;;3.20;2.90;;;11.00;99.90;;;;;;4998177;28;20201;-90
2022/10/01 09:19:01;;;;;;;3.07;2.77;;;11.10;99.90;;;;;;4995224;28;20191;-90
2022/10/01 09:21:46;;;;;;;3.20;3.00;;;11.00;99.90;;;;;;4994663;28;20202;-89
2022/10/01 09:24:23;;;;;;;3.20;2.90;;;11.00;99.90;;;;;;4987026;28;20186;-90
2022/10/01 09:26:50;;;;;;;2.60;2.40;;;11.10;99.90;;;;;;4994637;28;20738;-90
2022/10/01 09:29:24;;;;;;;2.87;2.67;;;11.30;99.90;;;;;;4994081;28;20201;-90
2022/10/01 09:31:52;;;;;;;3.40;2.90;;;11.20;99.90;;;;;;4992321;28;20466;-90
2022/10/01 09:34:34;;;;;;;3.13;2.83;;;11.20;99.90;;;;;;4996026;28;20213;-90
2022/10/01 09:37:26;;;;;;;6.17;2.90;;;11.10;99.90;;;;;;4991986;28;20238;-89
2022/10/01 09:40:11;;;;;;;3.10;2.67;;;11.10;99.90;;;;;;4992893;28;20233;-90
2022/10/01 09:42:37;;;;;;;2.80;2.60;;;11.10;99.90;;;;;;4994290;28;20235;-90
2022/10/01 09:45:05;;;;;;;3.00;2.70;;;11.10;99.90;;;;;;4995857;28;20202;-89
2022/10/01 09:47:33;;;;;;;3.77;2.67;;;11.20;99.90;;;;;;4996667;28;20285;-90
2022/10/01 09:50:02;;;;;;;3.97;2.60;;;11.20;99.90;;;;;;4998592;28;20229;-90
2022/10/01 09:52:34;;;;;;;3.03;2.73;;;11.30;99.90;;;;;;4997227;28;20191;-89
2022/10/01 09:55:24;;;;;;;3.10;2.80;;;11.20;99.90;;;;;;4997362;28;20205;-90
2022/10/01 09:57:57;;;;;;;3.47;2.50;;;11.30;99.90;;;;;;5007311;28;20305;-90
2022/10/01 10:00:25;;;;;;;2.90;2.70;;;11.30;99.90;;;;;;4993280;28;20206;-90
2022/10/01 10:02:53;;;;;;;2.93;2.73;;;11.40;99.90;;;;;;4995751;28;20181;-90
2022/10/01 10:05:24;;;;;;;2.67;2.47;;;11.40;99.90;;;;;;4996595;28;20781;-91
2022/10/01 10:08:01;;;;;;;2.77;2.40;;;11.30;99.90;;;;;;4997653;28;20213;-90
2022/10/01 10:10:29;;;;;;;5.47;2.90;;;11.30;99.90;;;;;;5007322;28;20214;-91
2022/10/01 10:13:12;;;;;;;2.80;2.60;;;11.40;99.90;;;;;;5016495;28;20205;-90
2022/10/01 10:15:48;;;;;;;4.27;2.70;;;11.40;99.90;;;;;;5015041;28;20204;-91
2022/10/01 10:18:16;;;;;;;3.00;2.80;;;11.50;99.90;;;;;;5007847;28;20213;-91
2022/10/01 10:20:44;;;;;;;2.70;2.50;;;11.40;99.90;;;;;;5001335;28;20205;-90
2022/10/01 10:23:16;;;;;;;2.87;2.67;;;11.50;99.90;;;;;;5000906;28;20186;-91
2022/10/01 10:25:42;;;;;;;3.43;2.80;;;11.50;99.90;;;;;;5003196;28;20202;-90
2022/10/01 10:28:22;;;;;;;5.60;2.60;;;11.50;99.90;;;;;;5007818;28;20196;-90
2022/10/01 10:30:54;;;;;;;2.70;2.53;;;11.60;99.90;;;;;;5010223;28;20215;-90
2022/10/01 10:33:22;;;;;;;3.70;3.10;;;11.60;99.90;;;;;;5016467;28;20186;-90
2022/10/01 10:36:00;;;;;;;3.20;3.00;;;11.50;99.90;;;;;;5004278;28;20226;-91
2022/10/01 10:38:33;;;;;;;3.40;2.90;;;11.50;99.90;;;;;;5001878;28;20193;-90
2022/10/01 10:41:02;;;;;;;2.70;2.50;;;11.50;99.90;;;;;;5007428;28;20214;-91
2022/10/01 10:43:33;;;;;;;3.97;2.70;;;11.60;99.90;;;;;;5004436;28;20253;-91
2022/10/01 10:46:00;;;;;;;2.40;2.30;;;11.60;99.90;;;;;;5003419;28;20194;-92
2022/10/01 10:48:36;;;;;;;2.73;2.53;;;11.50;99.90;;;;;;5008103;28;20282;-91
2022/10/01 10:51:04;;;;;;;2.97;2.50;;;11.60;99.90;;;;;;5000712;28;20294;-91
2022/10/01 10:53:42;;;;;;;2.80;2.43;;;11.70;99.90;;;;;;4995807;28;20639;-91
2022/10/01 10:56:23;;;;;;;2.90;2.70;;;11.70;99.90;;;;;;5000779;28;20317;-91
2022/10/01 10:58:50;;;;;;;2.80;2.60;;;11.70;99.90;;;;;;4999737;28;20187;-91
2022/10/01 11:01:24;;;;;;;2.53;2.33;;;11.70;99.90;;;;;;4986702;28;20239;-91
2022/10/01 11:03:54;;;;;;;2.80;2.40;;;11.70;99.90;;;;;;5000451;28;20182;-91
2022/10/01 11:06:21;;;;;;;3.30;2.40;;;11.70;99.90;;;;;;5003482;28;20607;-91
2022/10/01 11:09:05;;;;;;;2.60;2.40;;;11.80;99.90;;;;;;4994968;28;20424;-91
2022/10/01 11:11:43;;;;;;;2.80;2.60;;;11.80;99.90;;;;;;4994635;28;20210;-89
2022/10/01 11:14:27;;;;;;;2.60;2.40;;;11.70;99.90;;;;;;4995701;28;20265;-90
2022/10/01 11:17:04;;;;;;;2.53;2.33;;;11.80;99.90;;;;;;4998712;28;20218;-91
2022/10/01 11:19:49;;;;;;;2.40;2.20;;;11.60;99.90;;;;;;4993829;28;20268;-91
2022/10/01 11:22:29;;;;;;;2.93;2.10;;;11.70;99.90;;;;;;4998339;28;20180;-92
2022/10/01 11:25:12;;;;;;;2.40;2.27;;;11.70;99.90;;;;;;5002209;28;20278;-93
2022/10/01 11:28:20;;;;;;;2.50;2.30;;;11.90;99.90;;;;;;4994000;28;20656;-90
2022/10/01 11:30:53;;;;;;;2.57;2.13;;;11.90;99.90;;;;;;5005823;28;20282;-90
2022/10/01 11:33:36;;;;;;;2.50;2.30;;;12.00;99.90;;;;;;5005478;28;20652;-91
2022/10/01 11:36:13;;;;;;;2.40;2.20;;;12.10;99.90;;;;;;5002271;28;20219;-91
2022/10/01 11:38:59;;;;;;;2.10;2.00;;;12.20;99.90;;;;;;5003134;28;20279;-92
2022/10/01 11:41:48;;;;;;;3.20;2.70;;;12.20;99.90;;;;;;4999542;28;20220;-91
2022/10/01 11:44:18;;;;;;;2.40;2.20;;;12.30;99.90;;;;;;5005469;28;20242;-91
2022/10/01 11:46:54;;;;;;;3.63;2.40;;;12.30;99.90;;;;;;4987607;28;20270;-91
2022/10/01 11:49:31;;;;;;;2.43;2.23;;;12.30;99.90;;;;;;4995151;28;20202;-91
2022/10/01 11:52:37;;;;;;;2.20;2.10;;;12.40;99.90;;;;;;4995070;28;20667;-90
2022/10/01 11:58:49;;;;;;;2.63;2.30;;;12.40;99.90;;;;;;4996743;28;20254;-90
2022/10/01 12:01:44;;;;;;;2.37;2.17;;;12.60;99.90;;;;;;4990221;28;20868;-86
2022/10/01 12:04:24;;;;;;;2.00;1.90;;;12.60;99.90;;;;;;4971430;28;20212;-89
2022/10/01 12:06:59;;;;;;;2.30;2.10;;;12.80;99.90;;;;;;4991215;28;20196;-90
2022/10/01 12:09:43;;;;;;;1.90;1.80;;;13.00;99.90;;;;;;5000583;28;20218;-90
2022/10/01 12:12:19;;;;;;;1.97;1.87;;;13.00;99.90;;;;;;5001237;28;20593;-90
2022/10/01 12:15:16;;;;;;;1.73;1.63;;;13.00;99.90;;;;;;5005912;28;20207;-91
2022/10/01 12:17:54;;;;;;;2.10;1.90;;;12.90;99.90;;;;;;5009062;28;20634;-89
2022/10/01 12:20:31;;;;;;;2.00;1.90;;;12.90;99.90;;;;;;5004191;28;20212;-90
2022/10/01 12:22:58;;;;;;;1.83;1.73;;;13.00;99.90;;;;;;4981777;28;20196;-89
2022/10/01 12:25:33;;;;;;;2.27;2.07;;;13.10;99.90;;;;;;4995349;28;20687;-91
2022/10/01 12:28:11;;;;;;;1.83;1.73;;;13.20;99.90;;;;;;5002625;28;20228;-90
2022/10/01 12:31:03;;;;;;;2.00;1.90;;;13.20;99.90;;;;;;5000782;28;20828;-91
2022/10/01 12:33:55;;;;;;;2.60;1.90;;;13.10;99.90;;;;;;5002538;28;20191;-91
2022/10/01 12:36:27;;;;;;;1.80;1.70;;;13.20;99.90;;;;;;4993675;28;20296;-91
2022/10/01 12:39:25;;;;;;;1.47;1.47;;;13.20;99.90;;;;;;4992237;28;20201;-91
2022/10/01 12:41:59;;;;;;;1.90;1.80;;;13.30;99.90;;;;;;4995873;28;20231;-90
2022/10/01 12:44:55;;;;;;;2.00;1.90;;;13.30;99.90;;;;;;4992608;28;20203;-90
2022/10/01 12:47:35;;;;;;;2.20;2.00;;;13.40;99.90;;;;;;4998325;28;20189;-90
2022/10/01 12:50:06;;;;;;;2.03;1.87;;;13.40;99.90;;;;;;5000354;28;20313;-90
2022/10/01 12:52:53;;;;;;;2.00;1.90;;;13.40;99.90;;;;;;5008552;28;20208;-90
2022/10/01 12:55:21;;;;;;;2.80;2.03;;;13.50;99.90;;;;;;5007942;28;20189;-90
2022/10/01 12:58:11;;;;;;;1.80;1.70;;;13.50;99.90;;;;;;5009222;28;20220;-89
2022/10/01 13:00:56;;;;;;;2.30;2.10;;;13.60;99.90;;;;;;4999302;28;20229;-88
2022/10/01 13:03:31;;;;;;;2.90;2.00;;;13.80;99.90;;;;;;5001457;28;20193;-89
2022/10/01 13:06:34;;;;;;;1.80;1.70;;;13.70;99.90;;;;;;5001469;28;20183;-89
2022/10/01 13:09:16;;;;;;;1.80;1.70;;;13.70;99.90;;;;;;4998298;28;20637;-89
2022/10/01 13:12:44;;;;;;;1.83;1.73;;;13.80;99.90;;;;;;5004819;28;20219;-89
2022/10/01 13:15:33;;;;;;;2.13;1.93;;;13.90;99.90;;;;;;4951548;28;20220;-90
2022/10/01 13:18:05;;;;;;;4.10;3.70;;;14.00;99.90;;;;;;4954127;28;20370;-89
2022/10/01 13:20:50;;;;;;;1.93;1.83;;;14.00;99.90;;;;;;4982969;28;20230;-90